Main page
METAR-TAF:

METAR-TAF

Airports :

St. Pete–Clearwater International Airport

St. Petersburg-Clearwater, Florida, United States

latitude: 27-54-44N, longitude: 082-41-08W, elevation: 10 ft

Current weather observation

The report was made 48 minutes ago, at 07:53 UTC
Wind 7 mph from the East
Temperature 73°F
Humidity 73%
Pressure 30.09 in. Hg
Visibility: 10 miles
Clear sky

METAR: KPIE 180753Z AUTO 09006KT 10SM CLR 23/18 A3009 RMK AO2 SLP189 T02280178

Time: 04:41 (08:41 UTC)

Forecast

The report was made 3 hours and 12 minutes ago, at 05:29 UTC
Forecast valid from 18 at 06 UTC to 19 at 06 UTC
Wind 10 mph from the East
Visibility: 6 miles
Few clouds at a height of 25000 ft
From 18 at 1400 UTC
Wind 14 mph from the East with gusts up to 21 mph
Visibility: 6 miles
Few clouds at a height of 5000 ft
Scattered clouds at a height of 25000 ft

TAF: KPIE 180529Z 1806/1906 09009KT P6SM FEW250 FM181400 10012G18KT P6SM FEW050 SCT250

Weather observations and forecasts of more than 4000 airports (METAR and TAF reports).

The available stations are represented by yellow and red dots on the map.

Hover mouse over dot to see the name of the station.

Then click to see weather observations and forecasts.

To change the map : click on the green buttons with a black cross to zoom in, on the green button with a dash to zoom out, or on the green arrows for adjacent maps.


METAR-TAF: